sensor_id;sensor_type;location;lat;lon;timestamp;P1;durP1;ratioP1;P2;durP2;ratioP2
14817;SDS011;7500;57.698;11.986;2023-11-18T00:00:56;4.63;;;3.10;;
14817;SDS011;7500;57.698;11.986;2023-11-18T00:03:25;4.57;;;3.10;;
14817;SDS011;7500;57.698;11.986;2023-11-18T00:05:51;4.70;;;3.23;;
14817;SDS011;7500;57.698;11.986;2023-11-18T00:08:18;3.47;;;2.77;;
14817;SDS011;7500;57.698;11.986;2023-11-18T00:10:45;5.20;;;3.00;;
14817;SDS011;7500;57.698;11.986;2023-11-18T00:13:12;3.50;;;2.67;;
14817;SDS011;7500;57.698;11.986;2023-11-18T00:15:39;3.57;;;2.63;;
14817;SDS011;7500;57.698;11.986;2023-11-18T00:18:05;3.33;;;2.87;;
14817;SDS011;7500;57.698;11.986;2023-11-18T00:20:33;3.60;;;2.93;;
14817;SDS011;7500;57.698;11.986;2023-11-18T00:23:01;5.70;;;3.20;;
14817;SDS011;7500;57.698;11.986;2023-11-18T00:25:30;3.63;;;2.90;;
14817;SDS011;7500;57.698;11.986;2023-11-18T00:27:57;3.60;;;2.60;;
14817;SDS011;7500;57.698;11.986;2023-11-18T00:30:23;5.03;;;2.87;;
14817;SDS011;7500;57.698;11.986;2023-11-18T00:32:50;3.20;;;2.63;;
14817;SDS011;7500;57.698;11.986;2023-11-18T00:35:17;3.10;;;2.80;;
14817;SDS011;7500;57.698;11.986;2023-11-18T00:37:45;3.70;;;2.97;;
14817;SDS011;7500;57.698;11.986;2023-11-18T00:40:13;2.73;;;2.53;;
14817;SDS011;7500;57.698;11.986;2023-11-18T00:42:43;4.33;;;2.50;;
14817;SDS011;7500;57.698;11.986;2023-11-18T00:45:10;3.20;;;2.90;;
14817;SDS011;7500;57.698;11.986;2023-11-18T00:47:38;3.10;;;2.60;;
14817;SDS011;7500;57.698;11.986;2023-11-18T00:50:06;4.17;;;2.87;;
14817;SDS011;7500;57.698;11.986;2023-11-18T00:52:34;3.57;;;3.03;;
14817;SDS011;7500;57.698;11.986;2023-11-18T00:55:06;2.67;;;2.37;;
14817;SDS011;7500;57.698;11.986;2023-11-18T00:57:32;3.17;;;2.60;;
14817;SDS011;7500;57.698;11.986;2023-11-18T00:59:59;3.13;;;2.83;;
14817;SDS011;7500;57.698;11.986;2023-11-18T01:02:26;3.40;;;2.97;;
14817;SDS011;7500;57.698;11.986;2023-11-18T01:04:53;3.10;;;2.80;;
14817;SDS011;7500;57.698;11.986;2023-11-18T01:07:20;4.63;;;2.70;;
14817;SDS011;7500;57.698;11.986;2023-11-18T01:09:47;3.77;;;2.70;;
14817;SDS011;7500;57.698;11.986;2023-11-18T01:12:15;2.83;;;2.53;;
14817;SDS011;7500;57.698;11.986;2023-11-18T01:14:42;2.60;;;2.40;;
14817;SDS011;7500;57.698;11.986;2023-11-18T01:17:08;3.70;;;2.90;;
14817;SDS011;7500;57.698;11.986;2023-11-18T01:19:35;3.03;;;2.60;;
14817;SDS011;7500;57.698;11.986;2023-11-18T01:22:02;3.63;;;2.80;;
14817;SDS011;7500;57.698;11.986;2023-11-18T01:24:31;3.60;;;2.50;;
14817;SDS011;7500;57.698;11.986;2023-11-18T01:26:57;3.03;;;2.80;;
14817;SDS011;7500;57.698;11.986;2023-11-18T01:29:27;3.40;;;3.10;;
14817;SDS011;7500;57.698;11.986;2023-11-18T01:31:53;2.60;;;2.40;;
14817;SDS011;7500;57.698;11.986;2023-11-18T01:34:21;2.57;;;2.37;;
14817;SDS011;7500;57.698;11.986;2023-11-18T01:36:47;2.67;;;2.47;;
14817;SDS011;7500;57.698;11.986;2023-11-18T01:39:15;3.10;;;2.80;;
14817;SDS011;7500;57.698;11.986;2023-11-18T01:41:43;4.03;;;3.03;;
14817;SDS011;7500;57.698;11.986;2023-11-18T01:44:09;5.17;;;3.10;;
14817;SDS011;7500;57.698;11.986;2023-11-18T01:46:38;3.10;;;2.80;;
14817;SDS011;7500;57.698;11.986;2023-11-18T01:49:05;3.83;;;2.90;;
14817;SDS011;7500;57.698;11.986;2023-11-18T01:51:33;3.77;;;2.73;;
14817;SDS011;7500;57.698;11.986;2023-11-18T01:54:01;2.67;;;2.40;;
14817;SDS011;7500;57.698;11.986;2023-11-18T01:56:29;3.90;;;2.80;;
14817;SDS011;7500;57.698;11.986;2023-11-18T01:58:57;2.97;;;2.43;;
14817;SDS011;7500;57.698;11.986;2023-11-18T02:01:24;4.90;;;2.83;;
14817;SDS011;7500;57.698;11.986;2023-11-18T02:03:53;3.63;;;2.43;;
14817;SDS011;7500;57.698;11.986;2023-11-18T02:06:20;2.67;;;2.40;;
14817;SDS011;7500;57.698;11.986;2023-11-18T02:08:47;2.83;;;2.57;;
14817;SDS011;7500;57.698;11.986;2023-11-18T02:11:15;2.80;;;2.50;;
14817;SDS011;7500;57.698;11.986;2023-11-18T02:13:44;2.83;;;2.50;;
14817;SDS011;7500;57.698;11.986;2023-11-18T02:16:14;2.60;;;2.40;;
14817;SDS011;7500;57.698;11.986;2023-11-18T02:18:41;2.67;;;2.43;;
14817;SDS011;7500;57.698;11.986;2023-11-18T02:21:09;3.27;;;2.37;;
14817;SDS011;7500;57.698;11.986;2023-11-18T02:23:37;2.63;;;2.40;;
14817;SDS011;7500;57.698;11.986;2023-11-18T02:26:05;3.43;;;2.50;;
14817;SDS011;7500;57.698;11.986;2023-11-18T02:28:32;4.20;;;2.60;;
14817;SDS011;7500;57.698;11.986;2023-11-18T02:31:00;3.33;;;2.77;;
14817;SDS011;7500;57.698;11.986;2023-11-18T02:33:31;2.87;;;2.67;;
14817;SDS011;7500;57.698;11.986;2023-11-18T02:36:02;4.20;;;3.00;;
14817;SDS011;7500;57.698;11.986;2023-11-18T02:38:31;5.07;;;3.13;;
14817;SDS011;7500;57.698;11.986;2023-11-18T02:40:58;3.83;;;3.30;;
14817;SDS011;7500;57.698;11.986;2023-11-18T02:43:27;2.70;;;2.47;;
14817;SDS011;7500;57.698;11.986;2023-11-18T02:45:55;3.20;;;2.90;;
14817;SDS011;7500;57.698;11.986;2023-11-18T02:48:23;4.00;;;3.03;;
14817;SDS011;7500;57.698;11.986;2023-11-18T02:50:50;3.00;;;2.70;;
14817;SDS011;7500;57.698;11.986;2023-11-18T02:53:17;2.80;;;2.50;;
14817;SDS011;7500;57.698;11.986;2023-11-18T02:55:43;3.03;;;2.73;;
14817;SDS011;7500;57.698;11.986;2023-11-18T02:58:11;3.30;;;2.77;;
14817;SDS011;7500;57.698;11.986;2023-11-18T03:00:39;2.90;;;2.60;;
14817;SDS011;7500;57.698;11.986;2023-11-18T03:03:06;3.00;;;2.70;;
14817;SDS011;7500;57.698;11.986;2023-11-18T03:05:32;6.60;;;3.10;;
14817;SDS011;7500;57.698;11.986;2023-11-18T03:08:01;3.53;;;2.97;;
14817;SDS011;7500;57.698;11.986;2023-11-18T03:10:31;2.97;;;2.67;;
14817;SDS011;7500;57.698;11.986;2023-11-18T03:13:00;3.90;;;2.87;;
14817;SDS011;7500;57.698;11.986;2023-11-18T03:15:28;4.13;;;3.17;;
14817;SDS011;7500;57.698;11.986;2023-11-18T03:17:56;3.10;;;2.70;;
14817;SDS011;7500;57.698;11.986;2023-11-18T03:20:23;3.20;;;2.90;;
14817;SDS011;7500;57.698;11.986;2023-11-18T03:22:51;4.47;;;2.53;;
14817;SDS011;7500;57.698;11.986;2023-11-18T03:25:18;3.37;;;2.60;;
14817;SDS011;7500;57.698;11.986;2023-11-18T03:27:46;3.50;;;3.17;;
14817;SDS011;7500;57.698;11.986;2023-11-18T03:30:13;4.10;;;3.30;;
14817;SDS011;7500;57.698;11.986;2023-11-18T03:32:42;3.90;;;3.10;;
14817;SDS011;7500;57.698;11.986;2023-11-18T03:35:10;3.20;;;2.90;;
14817;SDS011;7500;57.698;11.986;2023-11-18T03:37:37;3.30;;;3.00;;
14817;SDS011;7500;57.698;11.986;2023-11-18T03:40:06;3.40;;;3.10;;
14817;SDS011;7500;57.698;11.986;2023-11-18T03:42:33;4.13;;;3.43;;
14817;SDS011;7500;57.698;11.986;2023-11-18T03:45:02;4.07;;;3.30;;
14817;SDS011;7500;57.698;11.986;2023-11-18T03:47:29;3.87;;;3.47;;
14817;SDS011;7500;57.698;11.986;2023-11-18T03:49:56;3.97;;;3.27;;
14817;SDS011;7500;57.698;11.986;2023-11-18T03:52:25;3.63;;;3.07;;
14817;SDS011;7500;57.698;11.986;2023-11-18T03:54:53;3.77;;;3.17;;
14817;SDS011;7500;57.698;11.986;2023-11-18T03:57:20;3.53;;;3.10;;
14817;SDS011;7500;57.698;11.986;2023-11-18T03:59:46;4.17;;;3.33;;
14817;SDS011;7500;57.698;11.986;2023-11-18T04:02:13;3.70;;;3.20;;
14817;SDS011;7500;57.698;11.986;2023-11-18T04:04:40;4.10;;;3.20;;
14817;SDS011;7500;57.698;11.986;2023-11-18T04:07:06;3.60;;;3.23;;
14817;SDS011;7500;57.698;11.986;2023-11-18T04:09:34;3.37;;;2.60;;
14817;SDS011;7500;57.698;11.986;2023-11-18T04:12:01;3.60;;;3.17;;
14817;SDS011;7500;57.698;11.986;2023-11-18T04:14:28;3.37;;;3.07;;
14817;SDS011;7500;57.698;11.986;2023-11-18T04:16:55;4.43;;;3.57;;
14817;SDS011;7500;57.698;11.986;2023-11-18T04:19:22;3.57;;;3.10;;
14817;SDS011;7500;57.698;11.986;2023-11-18T04:21:49;4.07;;;3.30;;
14817;SDS011;7500;57.698;11.986;2023-11-18T04:24:16;3.97;;;3.40;;
14817;SDS011;7500;57.698;11.986;2023-11-18T04:26:44;3.70;;;3.23;;
14817;SDS011;7500;57.698;11.986;2023-11-18T04:29:11;3.33;;;2.87;;
14817;SDS011;7500;57.698;11.986;2023-11-18T04:31:38;4.40;;;3.27;;
14817;SDS011;7500;57.698;11.986;2023-11-18T04:34:05;4.33;;;3.50;;
14817;SDS011;7500;57.698;11.986;2023-11-18T04:36:31;3.63;;;3.07;;
14817;SDS011;7500;57.698;11.986;2023-11-18T04:38:58;4.43;;;3.50;;
14817;SDS011;7500;57.698;11.986;2023-11-18T04:41:25;3.97;;;3.30;;
14817;SDS011;7500;57.698;11.986;2023-11-18T04:43:53;3.77;;;3.03;;
14817;SDS011;7500;57.698;11.986;2023-11-18T04:46:20;3.30;;;3.00;;
14817;SDS011;7500;57.698;11.986;2023-11-18T04:48:47;5.97;;;3.63;;
14817;SDS011;7500;57.698;11.986;2023-11-18T04:51:14;3.93;;;3.40;;
14817;SDS011;7500;57.698;11.986;2023-11-18T04:53:42;9.73;;;3.50;;
14817;SDS011;7500;57.698;11.986;2023-11-18T04:56:09;4.57;;;3.60;;
14817;SDS011;7500;57.698;11.986;2023-11-18T04:58:37;4.70;;;3.67;;
14817;SDS011;7500;57.698;11.986;2023-11-18T05:01:06;11.77;;;3.93;;
14817;SDS011;7500;57.698;11.986;2023-11-18T05:03:33;4.10;;;3.63;;
14817;SDS011;7500;57.698;11.986;2023-11-18T05:06:00;6.40;;;3.90;;
14817;SDS011;7500;57.698;11.986;2023-11-18T05:08:29;4.43;;;3.57;;
14817;SDS011;7500;57.698;11.986;2023-11-18T05:10:56;6.90;;;4.20;;
14817;SDS011;7500;57.698;11.986;2023-11-18T05:13:23;4.40;;;3.97;;
14817;SDS011;7500;57.698;11.986;2023-11-18T05:15:51;5.47;;;3.97;;
14817;SDS011;7500;57.698;11.986;2023-11-18T05:18:20;9.90;;;4.50;;
14817;SDS011;7500;57.698;11.986;2023-11-18T05:20:47;5.20;;;4.20;;
14817;SDS011;7500;57.698;11.986;2023-11-18T05:23:14;4.10;;;3.67;;
14817;SDS011;7500;57.698;11.986;2023-11-18T05:25:41;4.50;;;4.10;;
14817;SDS011;7500;57.698;11.986;2023-11-18T05:28:08;6.07;;;4.40;;
14817;SDS011;7500;57.698;11.986;2023-11-18T05:30:35;4.47;;;3.70;;
14817;SDS011;7500;57.698;11.986;2023-11-18T05:33:02;5.87;;;4.07;;
14817;SDS011;7500;57.698;11.986;2023-11-18T05:35:30;7.57;;;4.43;;
14817;SDS011;7500;57.698;11.986;2023-11-18T05:37:58;5.20;;;3.87;;
14817;SDS011;7500;57.698;11.986;2023-11-18T05:40:25;5.17;;;4.13;;
14817;SDS011;7500;57.698;11.986;2023-11-18T05:42:52;6.13;;;4.63;;
14817;SDS011;7500;57.698;11.986;2023-11-18T05:45:20;4.47;;;3.60;;
14817;SDS011;7500;57.698;11.986;2023-11-18T05:47:56;4.93;;;4.10;;
14817;SDS011;7500;57.698;11.986;2023-11-18T05:50:23;5.60;;;4.00;;
14817;SDS011;7500;57.698;11.986;2023-11-18T05:52:52;7.37;;;4.10;;
14817;SDS011;7500;57.698;11.986;2023-11-18T05:55:19;5.03;;;3.77;;
14817;SDS011;7500;57.698;11.986;2023-11-18T05:57:46;7.43;;;4.20;;
14817;SDS011;7500;57.698;11.986;2023-11-18T06:00:13;4.73;;;3.90;;
14817;SDS011;7500;57.698;11.986;2023-11-18T06:02:40;6.00;;;4.47;;
14817;SDS011;7500;57.698;11.986;2023-11-18T06:05:07;4.20;;;3.80;;
14817;SDS011;7500;57.698;11.986;2023-11-18T06:07:34;6.03;;;4.10;;
14817;SDS011;7500;57.698;11.986;2023-11-18T06:10:02;5.73;;;4.00;;
14817;SDS011;7500;57.698;11.986;2023-11-18T06:12:30;4.77;;;3.60;;
14817;SDS011;7500;57.698;11.986;2023-11-18T06:14:57;4.53;;;3.70;;
14817;SDS011;7500;57.698;11.986;2023-11-18T06:17:24;4.63;;;4.00;;
14817;SDS011;7500;57.698;11.986;2023-11-18T06:19:50;5.13;;;4.00;;
14817;SDS011;7500;57.698;11.986;2023-11-18T06:22:17;4.17;;;3.70;;
14817;SDS011;7500;57.698;11.986;2023-11-18T06:24:45;4.87;;;4.00;;
14817;SDS011;7500;57.698;11.986;2023-11-18T06:27:13;4.20;;;3.37;;
14817;SDS011;7500;57.698;11.986;2023-11-18T06:29:41;4.77;;;3.70;;
14817;SDS011;7500;57.698;11.986;2023-11-18T06:32:08;4.00;;;3.60;;
14817;SDS011;7500;57.698;11.986;2023-11-18T06:34:34;3.77;;;3.40;;
14817;SDS011;7500;57.698;11.986;2023-11-18T06:37:01;3.90;;;3.50;;
14817;SDS011;7500;57.698;11.986;2023-11-18T06:39:29;4.60;;;3.20;;
14817;SDS011;7500;57.698;11.986;2023-11-18T06:41:55;4.30;;;3.60;;
14817;SDS011;7500;57.698;11.986;2023-11-18T06:44:24;3.50;;;3.20;;
14817;SDS011;7500;57.698;11.986;2023-11-18T06:46:51;3.10;;;2.80;;
14817;SDS011;7500;57.698;11.986;2023-11-18T06:49:18;3.50;;;2.87;;
14817;SDS011;7500;57.698;11.986;2023-11-18T06:51:44;3.97;;;3.10;;
14817;SDS011;7500;57.698;11.986;2023-11-18T06:54:11;3.57;;;3.27;;
14817;SDS011;7500;57.698;11.986;2023-11-18T06:56:39;3.73;;;3.20;;
14817;SDS011;7500;57.698;11.986;2023-11-18T06:59:08;3.40;;;3.10;;
14817;SDS011;7500;57.698;11.986;2023-11-18T07:01:36;5.00;;;3.33;;
14817;SDS011;7500;57.698;11.986;2023-11-18T07:04:06;4.50;;;3.20;;
14817;SDS011;7500;57.698;11.986;2023-11-18T07:06:33;3.87;;;3.47;;
14817;SDS011;7500;57.698;11.986;2023-11-18T07:09:03;3.47;;;3.17;;
14817;SDS011;7500;57.698;11.986;2023-11-18T07:11:37;5.10;;;3.30;;
14817;SDS011;7500;57.698;11.986;2023-11-18T07:14:04;4.33;;;3.50;;
14817;SDS011;7500;57.698;11.986;2023-11-18T07:16:32;3.67;;;3.10;;
14817;SDS011;7500;57.698;11.986;2023-11-18T07:19:00;3.70;;;3.03;;
14817;SDS011;7500;57.698;11.986;2023-11-18T07:21:28;3.53;;;3.10;;
14817;SDS011;7500;57.698;11.986;2023-11-18T07:23:55;4.00;;;3.03;;
14817;SDS011;7500;57.698;11.986;2023-11-18T07:26:22;2.97;;;2.67;;
14817;SDS011;7500;57.698;11.986;2023-11-18T07:28:49;3.13;;;2.57;;
14817;SDS011;7500;57.698;11.986;2023-11-18T07:31:16;3.00;;;2.60;;
14817;SDS011;7500;57.698;11.986;2023-11-18T07:33:44;3.23;;;2.70;;
14817;SDS011;7500;57.698;11.986;2023-11-18T07:36:15;2.70;;;2.47;;
14817;SDS011;7500;57.698;11.986;2023-11-18T07:38:42;3.07;;;2.57;;
14817;SDS011;7500;57.698;11.986;2023-11-18T07:41:09;3.63;;;2.93;;
14817;SDS011;7500;57.698;11.986;2023-11-18T07:43:49;2.90;;;2.60;;
14817;SDS011;7500;57.698;11.986;2023-11-18T07:46:15;3.40;;;2.77;;
14817;SDS011;7500;57.698;11.986;2023-11-18T07:48:42;3.77;;;2.80;;
14817;SDS011;7500;57.698;11.986;2023-11-18T07:51:09;4.27;;;2.80;;
14817;SDS011;7500;57.698;11.986;2023-11-18T07:53:39;3.17;;;2.70;;
14817;SDS011;7500;57.698;11.986;2023-11-18T07:56:06;3.97;;;3.30;;
14817;SDS011;7500;57.698;11.986;2023-11-18T07:58:37;3.30;;;2.90;;
14817;SDS011;7500;57.698;11.986;2023-11-18T08:01:04;3.03;;;2.70;;
14817;SDS011;7500;57.698;11.986;2023-11-18T08:03:32;3.60;;;2.93;;
14817;SDS011;7500;57.698;11.986;2023-11-18T08:05:59;4.10;;;2.90;;
14817;SDS011;7500;57.698;11.986;2023-11-18T08:08:27;3.43;;;2.90;;
14817;SDS011;7500;57.698;11.986;2023-11-18T08:10:55;3.83;;;3.40;;
14817;SDS011;7500;57.698;11.986;2023-11-18T08:13:21;3.60;;;2.97;;
14817;SDS011;7500;57.698;11.986;2023-11-18T08:15:48;3.30;;;3.00;;
14817;SDS011;7500;57.698;11.986;2023-11-18T08:18:15;3.27;;;2.97;;
14817;SDS011;7500;57.698;11.986;2023-11-18T08:20:43;4.33;;;3.20;;
14817;SDS011;7500;57.698;11.986;2023-11-18T08:23:10;3.47;;;3.10;;
14817;SDS011;7500;57.698;11.986;2023-11-18T08:25:36;4.63;;;3.90;;
14817;SDS011;7500;57.698;11.986;2023-11-18T08:28:06;3.83;;;3.23;;
14817;SDS011;7500;57.698;11.986;2023-11-18T08:30:33;4.33;;;3.77;;
14817;SDS011;7500;57.698;11.986;2023-11-18T08:33:00;3.37;;;3.03;;
14817;SDS011;7500;57.698;11.986;2023-11-18T08:35:29;4.87;;;3.73;;
14817;SDS011;7500;57.698;11.986;2023-11-18T08:37:56;4.13;;;3.50;;
14817;SDS011;7500;57.698;11.986;2023-11-18T08:40:25;4.43;;;3.80;;
14817;SDS011;7500;57.698;11.986;2023-11-18T08:42:52;4.47;;;3.83;;
14817;SDS011;7500;57.698;11.986;2023-11-18T08:45:22;3.60;;;3.30;;
14817;SDS011;7500;57.698;11.986;2023-11-18T08:47:52;4.80;;;3.97;;
14817;SDS011;7500;57.698;11.986;2023-11-18T08:50:20;3.90;;;3.50;;
14817;SDS011;7500;57.698;11.986;2023-11-18T08:52:49;5.00;;;3.97;;
14817;SDS011;7500;57.698;11.986;2023-11-18T08:55:18;6.50;;;4.10;;
14817;SDS011;7500;57.698;11.986;2023-11-18T08:57:46;4.50;;;4.10;;
14817;SDS011;7500;57.698;11.986;2023-11-18T09:00:25;4.70;;;4.20;;
14817;SDS011;7500;57.698;11.986;2023-11-18T09:03:09;4.33;;;3.87;;
14817;SDS011;7500;57.698;11.986;2023-11-18T09:05:42;4.40;;;3.67;;
14817;SDS011;7500;57.698;11.986;2023-11-18T09:08:21;4.37;;;3.60;;
14817;SDS011;7500;57.698;11.986;2023-11-18T09:10:48;4.93;;;3.87;;
14817;SDS011;7500;57.698;11.986;2023-11-18T09:13:19;4.10;;;3.70;;
14817;SDS011;7500;57.698;11.986;2023-11-18T09:15:47;4.67;;;4.17;;
14817;SDS011;7500;57.698;11.986;2023-11-18T09:18:14;4.67;;;3.70;;
14817;SDS011;7500;57.698;11.986;2023-11-18T09:20:43;4.40;;;3.70;;
14817;SDS011;7500;57.698;11.986;2023-11-18T09:23:09;5.90;;;3.70;;
14817;SDS011;7500;57.698;11.986;2023-11-18T09:25:36;4.80;;;4.00;;
14817;SDS011;7500;57.698;11.986;2023-11-18T09:28:04;3.83;;;3.33;;
14817;SDS011;7500;57.698;11.986;2023-11-18T09:30:31;4.27;;;3.50;;
14817;SDS011;7500;57.698;11.986;2023-11-18T09:33:01;6.83;;;3.67;;
14817;SDS011;7500;57.698;11.986;2023-11-18T09:35:31;4.90;;;3.67;;
14817;SDS011;7500;57.698;11.986;2023-11-18T09:37:59;4.60;;;3.80;;
14817;SDS011;7500;57.698;11.986;2023-11-18T09:40:31;3.73;;;3.20;;
14817;SDS011;7500;57.698;11.986;2023-11-18T09:42:59;5.37;;;3.70;;
14817;SDS011;7500;57.698;11.986;2023-11-18T09:45:26;4.93;;;3.63;;
14817;SDS011;7500;57.698;11.986;2023-11-18T09:47:53;5.13;;;3.60;;
14817;SDS011;7500;57.698;11.986;2023-11-18T09:50:21;3.73;;;3.27;;
14817;SDS011;7500;57.698;11.986;2023-11-18T09:52:53;4.33;;;3.67;;
14817;SDS011;7500;57.698;11.986;2023-11-18T09:55:22;3.63;;;3.33;;
14817;SDS011;7500;57.698;11.986;2023-11-18T09:57:54;5.63;;;3.30;;
14817;SDS011;7500;57.698;11.986;2023-11-18T10:00:23;3.40;;;3.10;;
14817;SDS011;7500;57.698;11.986;2023-11-18T10:02:53;3.97;;;3.10;;
14817;SDS011;7500;57.698;11.986;2023-11-18T10:05:23;5.90;;;3.67;;
14817;SDS011;7500;57.698;11.986;2023-11-18T10:07:52;4.87;;;3.47;;
14817;SDS011;7500;57.698;11.986;2023-11-18T10:10:18;4.83;;;3.37;;
14817;SDS011;7500;57.698;11.986;2023-11-18T10:12:46;5.50;;;3.30;;
14817;SDS011;7500;57.698;11.986;2023-11-18T10:15:17;6.87;;;3.27;;
14817;SDS011;7500;57.698;11.986;2023-11-18T10:17:45;3.80;;;3.13;;
14817;SDS011;7500;57.698;11.986;2023-11-18T10:20:20;5.17;;;3.37;;
14817;SDS011;7500;57.698;11.986;2023-11-18T10:23:05;5.03;;;3.10;;
14817;SDS011;7500;57.698;11.986;2023-11-18T10:25:35;4.70;;;3.50;;
14817;SDS011;7500;57.698;11.986;2023-11-18T10:28:06;6.23;;;3.30;;
14817;SDS011;7500;57.698;11.986;2023-11-18T10:30:33;6.23;;;3.40;;
14817;SDS011;7500;57.698;11.986;2023-11-18T10:33:13;3.87;;;3.20;;
14817;SDS011;7500;57.698;11.986;2023-11-18T10:35:48;4.47;;;3.23;;
14817;SDS011;7500;57.698;11.986;2023-11-18T10:38:17;4.03;;;3.67;;
14817;SDS011;7500;57.698;11.986;2023-11-18T10:40:44;3.90;;;3.50;;
14817;SDS011;7500;57.698;11.986;2023-11-18T10:43:11;6.27;;;3.77;;
14817;SDS011;7500;57.698;11.986;2023-11-18T10:45:37;4.93;;;4.07;;
14817;SDS011;7500;57.698;11.986;2023-11-18T10:48:06;4.60;;;3.33;;
14817;SDS011;7500;57.698;11.986;2023-11-18T10:50:32;4.50;;;3.73;;
14817;SDS011;7500;57.698;11.986;2023-11-18T10:52:59;3.73;;;3.43;;
14817;SDS011;7500;57.698;11.986;2023-11-18T10:55:35;4.10;;;3.53;;
14817;SDS011;7500;57.698;11.986;2023-11-18T10:58:03;4.70;;;3.20;;
14817;SDS011;7500;57.698;11.986;2023-11-18T11:00:45;4.63;;;3.50;;
14817;SDS011;7500;57.698;11.986;2023-11-18T11:03:12;5.83;;;3.50;;
14817;SDS011;7500;57.698;11.986;2023-11-18T11:05:39;4.27;;;3.60;;
14817;SDS011;7500;57.698;11.986;2023-11-18T11:08:08;5.17;;;3.80;;
14817;SDS011;7500;57.698;11.986;2023-11-18T11:10:39;5.93;;;3.20;;
14817;SDS011;7500;57.698;11.986;2023-11-18T11:13:07;4.17;;;3.37;;
14817;SDS011;7500;57.698;11.986;2023-11-18T11:15:40;4.13;;;3.40;;
14817;SDS011;7500;57.698;11.986;2023-11-18T11:18:10;5.03;;;3.40;;
14817;SDS011;7500;57.698;11.986;2023-11-18T11:20:41;3.33;;;3.00;;
14817;SDS011;7500;57.698;11.986;2023-11-18T11:23:11;5.13;;;3.20;;
14817;SDS011;7500;57.698;11.986;2023-11-18T11:25:50;4.07;;;2.80;;
14817;SDS011;7500;57.698;11.986;2023-11-18T11:28:22;3.10;;;2.80;;
14817;SDS011;7500;57.698;11.986;2023-11-18T11:30:50;5.03;;;2.80;;
14817;SDS011;7500;57.698;11.986;2023-11-18T11:33:21;4.30;;;2.70;;
14817;SDS011;7500;57.698;11.986;2023-11-18T11:35:52;3.70;;;2.00;;
14817;SDS011;7500;57.698;11.986;2023-11-18T11:38:22;3.50;;;2.40;;
14817;SDS011;7500;57.698;11.986;2023-11-18T11:40:51;3.60;;;2.47;;
14817;SDS011;7500;57.698;11.986;2023-11-18T11:43:19;3.03;;;2.00;;
14817;SDS011;7500;57.698;11.986;2023-11-18T11:45:47;2.70;;;2.30;;
14817;SDS011;7500;57.698;11.986;2023-11-18T11:48:17;3.10;;;2.30;;
14817;SDS011;7500;57.698;11.986;2023-11-18T11:53:41;2.33;;;1.97;;
14817;SDS011;7500;57.698;11.986;2023-11-18T11:56:12;3.37;;;2.43;;
14817;SDS011;7500;57.698;11.986;2023-11-18T11:58:45;3.37;;;2.07;;
14817;SDS011;7500;57.698;11.986;2023-11-18T12:01:21;3.40;;;2.00;;
14817;SDS011;7500;57.698;11.986;2023-11-18T12:03:49;3.33;;;2.33;;
14817;SDS011;7500;57.698;11.986;2023-11-18T12:06:22;3.47;;;2.40;;
14817;SDS011;7500;57.698;11.986;2023-11-18T12:08:49;2.60;;;2.40;;
14817;SDS011;7500;57.698;11.986;2023-11-18T12:11:18;3.50;;;2.67;;
14817;SDS011;7500;57.698;11.986;2023-11-18T12:13:59;2.73;;;2.50;;
14817;SDS011;7500;57.698;11.986;2023-11-18T12:19:28;2.97;;;2.30;;
14817;SDS011;7500;57.698;11.986;2023-11-18T12:21:56;4.73;;;2.30;;
14817;SDS011;7500;57.698;11.986;2023-11-18T12:24:26;3.33;;;2.27;;
14817;SDS011;7500;57.698;11.986;2023-11-18T12:26:56;4.77;;;2.20;;
14817;SDS011;7500;57.698;11.986;2023-11-18T12:29:32;2.90;;;2.20;;
14817;SDS011;7500;57.698;11.986;2023-11-18T12:31:59;2.00;;;1.90;;
14817;SDS011;7500;57.698;11.986;2023-11-18T12:37:41;3.00;;;2.40;;
14817;SDS011;7500;57.698;11.986;2023-11-18T12:43:02;3.80;;;2.33;;
14817;SDS011;7500;57.698;11.986;2023-11-18T12:48:19;3.37;;;2.27;;
14817;SDS011;7500;57.698;11.986;2023-11-18T12:50:52;4.03;;;2.60;;
14817;SDS011;7500;57.698;11.986;2023-11-18T12:53:20;5.33;;;2.33;;
14817;SDS011;7500;57.698;11.986;2023-11-18T12:55:49;4.87;;;2.30;;
14817;SDS011;7500;57.698;11.986;2023-11-18T12:58:18;4.57;;;2.80;;
14817;SDS011;7500;57.698;11.986;2023-11-18T13:00:45;6.43;;;2.80;;
14817;SDS011;7500;57.698;11.986;2023-11-18T13:03:12;3.40;;;2.60;;
14817;SDS011;7500;57.698;11.986;2023-11-18T13:05:40;5.30;;;2.30;;
14817;SDS011;7500;57.698;11.986;2023-11-18T13:08:08;2.90;;;2.17;;
14817;SDS011;7500;57.698;11.986;2023-11-18T13:10:35;4.40;;;2.27;;
14817;SDS011;7500;57.698;11.986;2023-11-18T13:13:02;3.57;;;2.20;;
14817;SDS011;7500;57.698;11.986;2023-11-18T13:15:31;3.40;;;2.50;;
14817;SDS011;7500;57.698;11.986;2023-11-18T13:17:59;5.73;;;2.23;;
14817;SDS011;7500;57.698;11.986;2023-11-18T13:20:27;6.00;;;2.90;;
14817;SDS011;7500;57.698;11.986;2023-11-18T13:22:54;4.87;;;2.60;;
14817;SDS011;7500;57.698;11.986;2023-11-18T13:25:21;3.43;;;2.63;;
14817;SDS011;7500;57.698;11.986;2023-11-18T13:27:48;3.90;;;2.17;;
14817;SDS011;7500;57.698;11.986;2023-11-18T13:30:15;2.27;;;2.07;;
14817;SDS011;7500;57.698;11.986;2023-11-18T13:32:44;3.30;;;2.10;;
14817;SDS011;7500;57.698;11.986;2023-11-18T13:35:11;3.60;;;2.30;;
14817;SDS011;7500;57.698;11.986;2023-11-18T13:37:39;3.17;;;2.00;;
14817;SDS011;7500;57.698;11.986;2023-11-18T13:40:07;2.83;;;2.13;;
14817;SDS011;7500;57.698;11.986;2023-11-18T13:42:34;5.63;;;2.33;;
14817;SDS011;7500;57.698;11.986;2023-11-18T13:45:04;3.10;;;2.07;;
14817;SDS011;7500;57.698;11.986;2023-11-18T13:47:34;2.43;;;2.20;;
14817;SDS011;7500;57.698;11.986;2023-11-18T13:50:05;4.13;;;2.30;;
14817;SDS011;7500;57.698;11.986;2023-11-18T13:52:32;3.80;;;2.30;;
14817;SDS011;7500;57.698;11.986;2023-11-18T13:54:59;5.20;;;3.17;;
14817;SDS011;7500;57.698;11.986;2023-11-18T13:57:26;3.50;;;2.57;;
14817;SDS011;7500;57.698;11.986;2023-11-18T13:59:53;3.03;;;2.40;;
14817;SDS011;7500;57.698;11.986;2023-11-18T14:02:20;2.83;;;2.47;;
14817;SDS011;7500;57.698;11.986;2023-11-18T14:04:46;2.53;;;2.30;;
14817;SDS011;7500;57.698;11.986;2023-11-18T14:07:15;2.43;;;2.03;;
14817;SDS011;7500;57.698;11.986;2023-11-18T14:09:42;6.07;;;2.37;;
14817;SDS011;7500;57.698;11.986;2023-11-18T14:12:10;2.90;;;2.10;;
14817;SDS011;7500;57.698;11.986;2023-11-18T14:14:37;2.57;;;2.20;;
14817;SDS011;7500;57.698;11.986;2023-11-18T14:17:05;3.60;;;2.40;;
14817;SDS011;7500;57.698;11.986;2023-11-18T14:19:35;3.90;;;2.10;;
14817;SDS011;7500;57.698;11.986;2023-11-18T14:22:03;5.23;;;2.40;;
14817;SDS011;7500;57.698;11.986;2023-11-18T14:24:33;2.47;;;2.20;;
14817;SDS011;7500;57.698;11.986;2023-11-18T14:27:00;3.07;;;2.20;;
14817;SDS011;7500;57.698;11.986;2023-11-18T14:29:26;4.77;;;2.30;;
14817;SDS011;7500;57.698;11.986;2023-11-18T14:31:53;3.27;;;2.10;;
14817;SDS011;7500;57.698;11.986;2023-11-18T14:34:20;4.20;;;2.60;;
14817;SDS011;7500;57.698;11.986;2023-11-18T14:36:47;9.13;;;2.90;;
14817;SDS011;7500;57.698;11.986;2023-11-18T14:39:14;4.00;;;2.37;;
14817;SDS011;7500;57.698;11.986;2023-11-18T14:41:44;3.03;;;2.40;;
14817;SDS011;7500;57.698;11.986;2023-11-18T14:44:11;3.43;;;2.60;;
14817;SDS011;7500;57.698;11.986;2023-11-18T14:46:38;4.27;;;3.20;;
14817;SDS011;7500;57.698;11.986;2023-11-18T14:49:06;3.47;;;2.40;;
14817;SDS011;7500;57.698;11.986;2023-11-18T14:51:32;4.00;;;2.93;;
14817;SDS011;7500;57.698;11.986;2023-11-18T14:53:59;4.93;;;3.20;;
14817;SDS011;7500;57.698;11.986;2023-11-18T14:56:26;4.10;;;2.60;;
14817;SDS011;7500;57.698;11.986;2023-11-18T14:58:54;4.17;;;2.10;;
14817;SDS011;7500;57.698;11.986;2023-11-18T15:01:21;3.20;;;2.20;;
14817;SDS011;7500;57.698;11.986;2023-11-18T15:03:47;3.80;;;2.83;;
14817;SDS011;7500;57.698;11.986;2023-11-18T15:06:14;7.63;;;2.77;;
14817;SDS011;7500;57.698;11.986;2023-11-18T15:08:41;3.10;;;2.80;;